AirNav   Phillips 66 Aviation Fuel
 
 1062 users online  

7M5 Ozark-Franklin County Airport
Ozark, Arkansas, USA

GOING TO OZARK?


FAA INFORMATION EFFECTIVE 04 JANUARY 2018

Location

FAA Identifier: 7M5
Lat/Long: 35-30-38.5050N / 093-50-21.5070W
35-30.641750N / 093-50.358450W
35.5106958 / -93.8393075
(estimated)
Elevation: 648 ft. / 197.5 m (surveyed)
Variation: 04E (1995)
From city: 2 miles NW of OZARK, AR
Time zone: UTC -6 (UTC -5 during Daylight Saving Time)
Zip code: 72949

Airport Operations

Airport use: Open to the public
Activation date: 04/1940
Control tower: no
ARTCC: MEMPHIS CENTER
FSS: JONESBORO FLIGHT SERVICE STATION
NOTAMs facility: JBR (NOTAM-D service available)
Attendance: UNATTNDD
Wind indicator: lighted
Segmented circle: yes
Lights: DUSK-DAWN. ACTVT MIRL RY 04/22, PAPI RYS 4 &22 - CTAF.
Beacon: white-green (lighted land airport)
Operates sunset to sunrise.

Airport Communications

CTAF/UNICOM: 122.8
RAZORBACK APPROACH: 120.9
RAZORBACK DEPARTURE: 120.9
  • APCH/DEP SVC PRVDD BY MEMPHIS ARTCC ON FREQS 128.475/377.15 (RUSSELLVILLE RCAG) WHEN RAZORBACK APCH CTL CLSD.

Nearby radio navigation aids

VOR radial/distance  VOR name  Freq  Var
FSMr064/22.4FORT SMITH VORTAC110.4007E
DAKr144/36.4DRAKE VOR/DME115.2507E

 
NDB name  Hdg/Dist  Freq  Var  ID
RUSSELLVILLE290/39.537903ERUE .-. ..- .

Airport Services

Fuel available: 100LL
SELF SERVICE FUEL AVBL 24 HRS WITH CREDIT CARD.
Parking: tiedowns
Bottled oxygen: NONE
Bulk oxygen: NONE

Runway Information

Runway 4/22

Dimensions: 3302 x 75 ft. / 1006 x 23 m
Surface: asphalt, in good condition
Weight bearing capacity: 
Single wheel: 12.0
Runway edge lights: medium intensity
RUNWAY 4  RUNWAY 22
Latitude: 35-30.457067N35-30.826067N
Longitude: 093-50.603000W093-50.113750W
Elevation: 606.0 ft.648.0 ft.
Gradient: 1.3%1.3%
Traffic pattern: leftleft
Runway heading: 043 magnetic, 047 true223 magnetic, 227 true
Markings: nonprecision, in good conditionnonprecision, in good condition
Visual slope indicator: 2-light PAPI on left (3.00 degrees glide path)2-light PAPI on left (4.00 degrees glide path)
RWY 22 PAPI UNUSBL BYD 2 DEG RIGHT OF CNTRLN. RWY 22 PAPI DOES NOT PRVD OBSTN CLNC BYD 4.0 NM FM THLD, UNUSBL BYD 4.0 NM.
Touchdown point: yes, no lightsyes, no lights
Obstructions: 5 ft. bldg, 250 ft. from runway, 10:1 slope to clear50 ft. tree, 315 ft. from runway, 150 ft. right of centerline, 2:1 slope to clear

Airport Ownership and Management from official FAA records

Ownership: Publicly-owned
Owner: CITY OF OZARK-FRANKLIN CO
PO BOX 196
OZARK, AR 72949
Phone 479-667-4726
COUNTY JUDGE.
Manager: GREGORY TILLERY
P.O. BOX 262
OZARK, AR 72949
Phone 479-213-2633

Airport Operational Statistics

Aircraft based on the field: 15
Single engine airplanes: 11
Multi engine airplanes: 2
Ultralights: 2
    
Aircraft operations: avg 97/week *
79% local general aviation
20% transient general aviation
1% military
* for 12-month period ending 31 August 2014

Instrument Procedures

NOTE: All procedures below are presented as PDF files. If you need a reader for these files, you should download the free Adobe Reader.

NOT FOR NAVIGATION. Please procure official charts for flight.
FAA instrument procedures published for use between 4 January 2018 at 0901Z and 1 February 2018 at 0900Z.

 
IAPs - Instrument Approach Procedures
RNAV (GPS) RWY 04   download (205KB)
VOR/DME-A   download (177KB)
NOTE: Special Take-Off Minimums/Departure Procedures apply   download (131KB)

Other nearby airports with instrument procedures:

H35 - Clarksville Municipal Airport (20 nm E)
KFSM - Fort Smith Regional Airport (28 nm W)
32A - Danville Municipal Airport (32 nm SE)
KFYV - Drake Field Airport (34 nm NW)
H34 - Huntsville Municipal Airport (34 nm N)
 
Loc | Ops | Rwys | IFR | FBO | Links
Com | Nav | Svcs | Stats | Notes

Fly Arkansas
AirBoss

 
Area around 7M5 (Ozark-Franklin County Airport)
 
Road maps at: MapQuest Bing Google
 
Aerial photo
WARNING: Photo may not be current or correct
Aerial photo of 7M5 (Ozark-Franklin County Airport)
Photo courtesy of the Arkansas Department of Aeronautics
Taken in the Spring of 2007

Do you have a better or more recent aerial photo of Ozark-Franklin County Airport that you would like to share? If so, please send us your photo.

 
Sectional chart

 
Airport distance calculator
Flying to Ozark-Franklin County Airport? Find the distance to fly.

From to 7M5

Sunrise and sunset
Times for 20-Jan-2018
 Local
(UTC-6)
 Zulu
(UTC)
Morning civil twilight06:5612:56
Sunrise07:2313:23
Sunset17:3023:30
Evening civil twilight17:5723:57

Current date and time
Zulu (UTC)  20-Jan-2018 17:14:48
Local (UTC-6)  20-Jan-2018 11:14:48
 
METAR
KFSM 
28nm W 
201700Z 05005KT 10SM OVC027 12/05 A3004 RMK AO2 T01170050
KFYV 
34nm NW 
201653Z 19012G23KT 10SM OVC021 13/08 A3001 RMK AO2 PK WND 17026/1638 SLP159 T01330083 $
KRUE 
39nm SE 
201653Z AUTO 12004KT 10SM OVC016 10/03 A3009 RMK AO2 SLP187 T01000033
KASG 
42nm N 
201648Z 21016G24KT 10SM OVC022 13/08 A3001
KJSV 
47nm W 
201655Z AUTO 18010G18KT 10SM BKN026 15/09 A3001 RMK AO2
KRKR 
48nm SW 
201655Z AUTO 18014G23KT 10SM OVC027 13/08 A3003 RMK AO2
TAF
KFSM 
28nm W 
201121Z 2012/2112 04006KT P6SM OVC027 WS020/21040KT FM201400 06005KT P6SM BKN015 WS020/21040KT FM201700 12010KT P6SM BKN025 FM202200 15010KT P6SM SCT035 FM210200 10006KT P6SM BKN015
KFYV 
34nm NW 
201121Z 2012/2112 18007KT P6SM OVC015 WS020/21045KT FM201800 19015G23KT P6SM BKN025 FM202200 18014KT P6SM SCT035 FM210200 17012KT P6SM BKN015
NOTAMs
Click for the latest NOTAMs
NOTAMs are issued by the DoD/FAA and will open in a separate window not controlled by AirNav.

 

 
 

FBO, Fuel Providers, and Aircraft Ground Support

  
 Business Name 
 
 Contact 
 
 Services / Description 
 
Fuel Prices
 
Comments
  
Ozark-Franklin County Airport 479-667-2159
no information available

If you are affiliated with Ozark-Franklin County Airport and would like to show here your services, contact info, web link, logo, and more, click here
100LL
SS $3.86 
 Updated 28-Aug-2017
 
   3 read write
SS=Self service
Update Fuel Prices
 

Would you like to see your business listed on this page?

 If your business provides an interesting product or service to pilots, flight crews, aircraft, or users of the Ozark-Franklin County Airport, you should consider listing it here.  To start the listing process, click on the button below
 
Add a business
 

Other Pages about Ozark-Franklin County Airport

Update a link
 
Copyright © AirNav, LLC. All rights reserved. Privacy Policy  Contact